createdAt,value
2023-02-24T00:01:39.488Z,100362.63
2023-02-24T00:04:11.574Z,100371.50
2023-02-24T00:06:46.204Z,100367.03
2023-02-24T00:09:21.313Z,100355.84
2023-02-24T00:11:55.928Z,100349.41
2023-02-24T00:14:28.017Z,100346.03
2023-02-24T00:16:58.800Z,100344.38
2023-02-24T00:19:32.833Z,100343.25
2023-02-24T00:22:03.393Z,100346.41
2023-02-24T00:24:36.384Z,100346.41
2023-02-24T00:27:11.974Z,100347.53
2023-02-24T00:29:42.688Z,100342.56
2023-02-24T00:32:15.007Z,100337.78
2023-02-24T00:34:46.456Z,100337.00
2023-02-24T00:37:17.208Z,100333.25
2023-02-24T00:39:50.904Z,100322.66
2023-02-24T00:42:22.933Z,100331.88
2023-02-24T00:44:54.194Z,100327.41
2023-02-24T00:47:25.332Z,100322.78
2023-02-24T00:49:56.695Z,100324.22
2023-02-24T00:52:27.987Z,100316.59
2023-02-24T00:55:00.982Z,100317.41
2023-02-24T00:57:33.427Z,100309.63
2023-02-24T01:00:09.314Z,100308.84
2023-02-24T01:02:40.238Z,100316.78
2023-02-24T01:05:13.246Z,100309.66
2023-02-24T01:07:43.311Z,100298.03
2023-02-24T01:10:18.494Z,100307.34
2023-02-24T01:12:54.088Z,100306.22
2023-02-24T01:15:25.772Z,100299.13
2023-02-24T01:17:55.866Z,100307.66
2023-02-24T01:20:30.152Z,100307.47
2023-02-24T01:23:00.261Z,100295.84
2023-02-24T01:25:32.947Z,100295.31
2023-02-24T01:28:03.249Z,100302.75
2023-02-24T01:30:33.974Z,100301.66
2023-02-24T01:33:04.382Z,100296.03
2023-02-24T01:35:35.274Z,100289.41
2023-02-24T01:38:05.442Z,100302.56
2023-02-24T01:40:40.184Z,100302.84
2023-02-24T01:43:10.689Z,100298.56
2023-02-24T01:45:40.914Z,100294.34
2023-02-24T01:48:17.357Z,100291.94
2023-02-24T01:50:48.370Z,100286.75
2023-02-24T01:53:19.025Z,100298.97
2023-02-24T01:55:54.534Z,100290.06
2023-02-24T01:58:29.370Z,100274.53
2023-02-24T02:00:59.729Z,100290.75
2023-02-24T02:03:32.963Z,100287.72
2023-02-24T02:06:06.153Z,100282.88
2023-02-24T02:08:38.841Z,100282.66
2023-02-24T02:11:13.580Z,100277.91
2023-02-24T02:13:50.405Z,100282.06
2023-02-24T02:16:44.204Z,100278.69
2023-02-24T02:20:07.203Z,100276.94
2023-02-24T02:22:56.135Z,100280.25
2023-02-24T02:25:39.003Z,100278.78
2023-02-24T02:28:39.175Z,100280.47
2023-02-24T02:31:32.034Z,100274.25
2023-02-24T02:34:22.833Z,100279.09
2023-02-24T02:37:01.246Z,100274.53
2023-02-24T02:39:43.315Z,100270.94
2023-02-24T02:42:27.864Z,100274.41
2023-02-24T02:45:07.859Z,100267.19
2023-02-24T02:47:47.081Z,100269.81
2023-02-24T02:50:27.055Z,100271.06
2023-02-24T02:53:01.296Z,100273.97
2023-02-24T02:55:39.250Z,100268.31
2023-02-24T02:58:15.606Z,100271.53
2023-02-24T03:00:51.483Z,100271.38
2023-02-24T03:03:22.379Z,100271.81
2023-02-24T03:06:00.155Z,100266.56
2023-02-24T03:08:34.497Z,100273.06
2023-02-24T03:11:06.563Z,100268.63
2023-02-24T03:13:42.116Z,100272.53
2023-02-24T03:16:17.552Z,100268.94
2023-02-24T03:18:53.137Z,100264.59
2023-02-24T03:21:33.178Z,100264.88
2023-02-24T03:24:06.465Z,100264.50
2023-02-24T03:26:45.209Z,100265.88
2023-02-24T03:29:24.216Z,100257.84
2023-02-24T03:32:04.860Z,100261.75
2023-02-24T03:34:46.622Z,100254.81
2023-02-24T03:37:25.602Z,100249.25
2023-02-24T03:39:57.388Z,100243.03
2023-02-24T03:42:33.888Z,100237.38
2023-02-24T03:45:06.474Z,100241.38
2023-02-24T03:47:37.024Z,100232.94
2023-02-24T03:50:15.322Z,100229.59
2023-02-24T03:53:01.621Z,100230.19
2023-02-24T03:55:48.648Z,100227.25
2023-02-24T03:58:28.357Z,100225.06
2023-02-24T04:01:05.868Z,100219.94
2023-02-24T04:03:45.800Z,100225.16
2023-02-24T04:06:38.380Z,100223.50
2023-02-24T04:09:20.244Z,100222.94
2023-02-24T04:12:14.006Z,100214.06
2023-02-24T04:14:53.582Z,100214.19
2023-02-24T04:17:31.684Z,100208.31
2023-02-24T04:20:10.443Z,100208.28
2023-02-24T04:22:49.102Z,100191.34
2023-02-24T04:25:25.740Z,100196.09
2023-02-24T04:27:59.175Z,100197.88
2023-02-24T04:30:34.080Z,100197.88
2023-02-24T04:33:04.963Z,100195.69
2023-02-24T04:35:35.716Z,100187.69
2023-02-24T04:38:07.422Z,100187.22
2023-02-24T04:40:41.471Z,100182.41
2023-02-24T04:43:13.116Z,100185.47
2023-02-24T04:45:43.131Z,100177.00
2023-02-24T04:48:15.411Z,100171.44
2023-02-24T04:50:46.534Z,100180.75
2023-02-24T04:53:18.648Z,100169.81
2023-02-24T04:55:51.602Z,100168.13
2023-02-24T04:58:27.583Z,100165.06
2023-02-24T05:00:58.507Z,100155.78
2023-02-24T05:03:30.181Z,100163.53
2023-02-24T05:06:02.274Z,100150.06
2023-02-24T05:08:34.187Z,100153.97
2023-02-24T05:11:07.200Z,100152.75
2023-02-24T05:13:37.705Z,100145.28
2023-02-24T05:16:09.950Z,100148.88
2023-02-24T05:18:40.183Z,100145.56
2023-02-24T05:21:25.467Z,100137.28
2023-02-24T05:23:58.253Z,100132.84
2023-02-24T05:26:32.340Z,100132.00
2023-02-24T05:29:02.848Z,100131.91
2023-02-24T05:31:33.847Z,100124.69
2023-02-24T05:34:05.393Z,100122.91
2023-02-24T05:36:40.303Z,100116.13
2023-02-24T05:39:12.811Z,100115.19
2023-02-24T05:41:48.591Z,100110.91
2023-02-24T05:44:22.680Z,100116.31
2023-02-24T05:46:58.372Z,100110.91
2023-02-24T05:49:33.227Z,100109.06
2023-02-24T05:52:07.885Z,100105.19
2023-02-24T05:54:40.614Z,100101.47
2023-02-24T05:57:17.091Z,100099.38
2023-02-24T05:59:47.327Z,100097.03
2023-02-24T06:02:27.785Z,100099.91
2023-02-24T06:05:01.026Z,100106.56
2023-02-24T06:07:34.607Z,100095.13
2023-02-24T06:10:10.052Z,100097.59
2023-02-24T06:12:42.782Z,100093.75
2023-02-24T06:15:13.650Z,100088.50
2023-02-24T06:17:43.726Z,100085.16
2023-02-24T06:20:17.244Z,100072.88
2023-02-24T06:22:48.735Z,100076.78
2023-02-24T06:25:19.029Z,100081.06
2023-02-24T06:27:54.795Z,100074.13
2023-02-24T06:30:27.347Z,100070.78
2023-02-24T06:32:57.662Z,100077.69
2023-02-24T06:35:27.810Z,100061.84
2023-02-24T06:37:58.554Z,100075.28
2023-02-24T06:40:28.608Z,100066.28
2023-02-24T06:43:01.219Z,100063.16
2023-02-24T06:45:32.302Z,100065.25
2023-02-24T06:48:03.587Z,100061.09
2023-02-24T06:50:33.684Z,100059.75
2023-02-24T06:53:03.801Z,100047.84
2023-02-24T06:55:35.666Z,100055.44
2023-02-24T06:58:08.402Z,100049.22
2023-02-24T07:00:43.045Z,100042.59
2023-02-24T07:03:18.161Z,100041.47
2023-02-24T07:05:54.601Z,100042.88
2023-02-24T07:08:27.436Z,100043.38
2023-02-24T07:11:00.036Z,100032.81
2023-02-24T07:13:32.672Z,100038.41
2023-02-24T07:16:07.111Z,100033.19
2023-02-24T07:18:41.800Z,100030.44
2023-02-24T07:21:13.295Z,100034.72
2023-02-24T07:23:44.312Z,100032.69
2023-02-24T07:26:30.613Z,100032.81
2023-02-24T07:29:04.562Z,100026.19
2023-02-24T07:31:37.190Z,100020.41
2023-02-24T07:34:07.448Z,100022.31
2023-02-24T07:36:49.209Z,100007.09
2023-02-24T07:39:21.497Z,100011.53
2023-02-24T07:41:52.639Z,99999.31
2023-02-24T07:44:26.478Z,100002.78
2023-02-24T07:46:59.944Z,99995.72
2023-02-24T07:49:30.511Z,99984.41
2023-02-24T07:52:00.533Z,99991.53
2023-02-24T07:54:31.309Z,99981.69
2023-02-24T07:57:02.145Z,99987.16
2023-02-24T07:59:38.119Z,99973.69
2023-02-24T08:02:08.329Z,99975.50
2023-02-24T08:04:41.238Z,99974.28
2023-02-24T08:07:14.515Z,99969.16
2023-02-24T08:10:03.490Z,99964.16
2023-02-24T08:12:35.242Z,99953.09
2023-02-24T08:15:17.460Z,99945.31
2023-02-24T08:17:48.252Z,99945.69
2023-02-24T08:20:36.087Z,99932.28
2023-02-24T08:23:08.791Z,99928.41
2023-02-24T08:25:38.788Z,99915.50
2023-02-24T08:28:11.827Z,99918.28
2023-02-24T08:30:47.881Z,99909.56
2023-02-24T08:33:23.184Z,99905.66
2023-02-24T08:36:01.405Z,99904.75
2023-02-24T08:38:40.043Z,99903.22
2023-02-24T08:41:18.112Z,99899.66
2023-02-24T08:43:49.249Z,99903.03
2023-02-24T08:46:26.660Z,99888.81
2023-02-24T08:49:00.980Z,99891.97
2023-02-24T08:51:35.068Z,99879.25
2023-02-24T08:54:11.192Z,99878.41
2023-02-24T08:56:43.787Z,99863.34
2023-02-24T08:59:29.330Z,99870.97
2023-02-24T09:02:17.526Z,99867.31
2023-02-24T09:04:47.940Z,99862.91
2023-02-24T09:07:19.736Z,99855.63
2023-02-24T09:09:50.018Z,99857.25
2023-02-24T09:12:25.013Z,99847.56
2023-02-24T09:15:01.258Z,99849.72
2023-02-24T09:17:50.263Z,99839.34
2023-02-24T09:20:35.068Z,99836.06
2023-02-24T09:23:07.249Z,99828.66
2023-02-24T09:25:49.715Z,99830.31
2023-02-24T09:28:24.875Z,99820.59
2023-02-24T09:30:57.199Z,99822.56
2023-02-24T09:33:39.080Z,99815.72
2023-02-24T09:36:20.531Z,99812.38
2023-02-24T09:39:05.130Z,99807.22
2023-02-24T09:41:54.001Z,99804.22
2023-02-24T09:44:29.855Z,99810.81
2023-02-24T09:47:09.264Z,99791.72
2023-02-24T09:49:56.325Z,99785.75
2023-02-24T09:52:39.970Z,99790.44
2023-02-24T09:55:27.734Z,99791.03
2023-02-24T09:58:15.268Z,99783.56
2023-02-24T10:01:21.431Z,99779.97
2023-02-24T10:04:14.893Z,99779.84
2023-02-24T10:06:55.382Z,99766.91
2023-02-24T10:09:34.724Z,99765.72
2023-02-24T10:12:11.783Z,99759.63
2023-02-24T10:14:53.024Z,99761.41
2023-02-24T10:17:30.726Z,99759.28
2023-02-24T10:20:14.042Z,99754.38
2023-02-24T10:22:55.373Z,99759.09
2023-02-24T10:25:54.147Z,99745.72
2023-02-24T10:28:36.070Z,99744.22
2023-02-24T10:31:25.684Z,99733.63
2023-02-24T10:34:00.361Z,99729.03
2023-02-24T10:36:35.759Z,99720.19
2023-02-24T10:39:16.396Z,99712.19
2023-02-24T10:41:49.314Z,99711.06
2023-02-24T10:44:27.199Z,99704.44
2023-02-24T10:47:14.086Z,99700.84
2023-02-24T10:49:57.252Z,99701.00
2023-02-24T10:53:11.175Z,99693.25
2023-02-24T10:56:15.154Z,99688.31
2023-02-24T10:59:08.379Z,99675.28
2023-02-24T11:01:55.102Z,99675.44
2023-02-24T11:04:33.622Z,99665.69
2023-02-24T11:07:12.161Z,99665.94
2023-02-24T11:09:52.567Z,99664.56
2023-02-24T11:12:40.091Z,99676.47
2023-02-24T11:15:34.385Z,99660.97
2023-02-24T11:18:07.024Z,99652.59
2023-02-24T11:20:49.105Z,99650.13
2023-02-24T11:23:23.318Z,99655.56
2023-02-24T11:25:58.339Z,99644.75
2023-02-24T11:28:44.728Z,99641.38
2023-02-24T11:31:29.085Z,99636.28
2023-02-24T11:34:07.627Z,99634.13
2023-02-24T11:36:45.731Z,99635.56
2023-02-24T11:39:37.968Z,99629.06
2023-02-24T11:42:14.947Z,99617.94
2023-02-24T11:44:56.389Z,99613.44
2023-02-24T11:47:32.200Z,99612.00
2023-02-24T11:50:20.688Z,99607.06
2023-02-24T11:52:54.912Z,99597.97
2023-02-24T11:55:34.520Z,99595.91
2023-02-24T11:58:08.743Z,99599.94
2023-02-24T12:00:54.429Z,99589.47
2023-02-24T12:03:32.791Z,99582.84
2023-02-24T12:06:12.890Z,99582.94
2023-02-24T12:08:47.432Z,99578.44
2023-02-24T12:11:24.424Z,99577.75
2023-02-24T12:14:00.590Z,99567.16
2023-02-24T12:16:41.096Z,99557.03
2023-02-24T12:19:21.131Z,99554.69
2023-02-24T12:21:56.339Z,99552.22
2023-02-24T12:24:26.491Z,99550.38
2023-02-24T12:27:08.077Z,99550.22
2023-02-24T12:29:54.601Z,99548.53
2023-02-24T12:32:36.037Z,99531.88
2023-02-24T12:35:16.873Z,99533.66
2023-02-24T12:38:05.482Z,99522.44
2023-02-24T12:40:48.574Z,99518.75
2023-02-24T12:43:29.871Z,99522.44
2023-02-24T12:46:12.518Z,99513.53
2023-02-24T12:49:09.467Z,99503.34
2023-02-24T12:51:51.762Z,99508.34
2023-02-24T12:54:31.774Z,99502.78
2023-02-24T12:57:12.021Z,99493.94
2023-02-24T12:59:43.266Z,99485.41
2023-02-24T13:02:25.665Z,99487.97
2023-02-24T13:05:10.186Z,99470.00
2023-02-24T13:07:55.573Z,99466.63
2023-02-24T13:10:39.822Z,99455.59
2023-02-24T13:13:17.908Z,99458.22
2023-02-24T13:15:56.730Z,99441.72
2023-02-24T13:18:40.229Z,99450.03
2023-02-24T13:21:25.251Z,99429.34
2023-02-24T13:23:58.676Z,99425.06
2023-02-24T13:26:30.979Z,99419.59
2023-02-24T13:29:06.232Z,99428.53
2023-02-24T13:31:46.036Z,99423.38
2023-02-24T13:34:18.549Z,99410.84
2023-02-24T13:36:55.440Z,99410.44
2023-02-24T13:39:37.507Z,99406.59
2023-02-24T13:42:09.986Z,99407.44
2023-02-24T13:44:50.735Z,99403.59
2023-02-24T13:47:48.928Z,99393.88
2023-02-24T13:50:28.583Z,99400.78
2023-02-24T13:53:31.815Z,99402.13
2023-02-24T13:56:23.215Z,99384.22
2023-02-24T13:59:15.728Z,99383.69
2023-02-24T14:01:53.607Z,99377.63
2023-02-24T14:04:41.763Z,99382.88
2023-02-24T14:07:14.763Z,99377.41
2023-02-24T14:09:52.052Z,99367.38
2023-02-24T14:12:28.070Z,99363.25
2023-02-24T14:14:59.407Z,99360.16
2023-02-24T14:17:34.088Z,99355.63
2023-02-24T14:20:22.536Z,99349.72
2023-02-24T14:22:54.966Z,99344.25
2023-02-24T14:25:33.156Z,99346.56
2023-02-24T14:28:08.380Z,99351.00
2023-02-24T14:30:40.178Z,99342.94
2023-02-24T14:33:22.581Z,99345.13
2023-02-24T14:35:52.785Z,99342.66
2023-02-24T14:38:35.167Z,99339.06
2023-02-24T14:41:08.899Z,99335.22
2023-02-24T14:43:44.680Z,99317.03
2023-02-24T14:46:16.553Z,99327.81
2023-02-24T14:48:47.508Z,99312.53
2023-02-24T14:51:28.340Z,99317.25
2023-02-24T14:54:02.144Z,99309.25
2023-02-24T14:56:41.589Z,99304.81
2023-02-24T14:59:20.975Z,99302.88
2023-02-24T15:01:53.453Z,99296.97
2023-02-24T15:04:33.777Z,99292.78
2023-02-24T15:07:06.361Z,99285.28
2023-02-24T15:09:45.273Z,99286.09
2023-02-24T15:12:26.799Z,99270.75
2023-02-24T15:14:59.611Z,99269.69
2023-02-24T15:17:30.692Z,99267.22
2023-02-24T15:20:00.768Z,99272.16
2023-02-24T15:22:33.584Z,99269.59
2023-02-24T15:25:22.366Z,99258.25
2023-02-24T15:28:00.792Z,99251.72
2023-02-24T15:30:38.694Z,99245.56
2023-02-24T15:33:11.133Z,99237.94
2023-02-24T15:35:49.605Z,99238.41
2023-02-24T15:38:25.641Z,99230.00
2023-02-24T15:40:57.496Z,99220.50
2023-02-24T15:43:39.001Z,99214.81
2023-02-24T15:46:24.777Z,99217.47
2023-02-24T15:48:58.316Z,99206.28
2023-02-24T15:51:34.887Z,99218.41
2023-02-24T15:54:07.746Z,99214.13
2023-02-24T15:56:38.971Z,99200.97
2023-02-24T15:59:14.019Z,99206.50
2023-02-24T16:01:44.264Z,99191.00
2023-02-24T16:04:14.607Z,99186.13
2023-02-24T16:06:54.629Z,99191.75
2023-02-24T16:09:33.766Z,99190.78
2023-02-24T16:12:06.598Z,99194.09
2023-02-24T16:14:39.723Z,99183.09
2023-02-24T16:17:19.946Z,99185.59
2023-02-24T16:19:50.096Z,99181.13
2023-02-24T16:22:20.597Z,99172.44
2023-02-24T16:24:51.002Z,99172.97
2023-02-24T16:27:24.010Z,99177.06
2023-02-24T16:29:56.755Z,99161.75
2023-02-24T16:32:27.373Z,99167.66
2023-02-24T16:34:57.577Z,99164.75
2023-02-24T16:37:30.533Z,99165.75
2023-02-24T16:40:01.628Z,99163.69
2023-02-24T16:42:31.697Z,99160.28
2023-02-24T16:45:04.279Z,99155.03
2023-02-24T16:47:36.996Z,99149.59
2023-02-24T16:50:07.843Z,99142.00
2023-02-24T16:52:37.803Z,99147.06
2023-02-24T16:55:08.585Z,99145.75
2023-02-24T16:57:38.616Z,99140.00
2023-02-24T17:00:13.597Z,99137.06
2023-02-24T17:02:46.153Z,99144.69
2023-02-24T17:05:24.670Z,99140.59
2023-02-24T17:07:59.218Z,99124.19
2023-02-24T17:10:29.255Z,99123.81
2023-02-24T17:12:59.228Z,99124.63
2023-02-24T17:15:32.693Z,99122.75
2023-02-24T17:18:03.048Z,99122.31
2023-02-24T17:20:40.106Z,99125.44
2023-02-24T17:23:14.306Z,99121.47
2023-02-24T17:25:44.289Z,99118.38
2023-02-24T17:28:14.503Z,99112.97
2023-02-24T17:30:47.275Z,99109.69
2023-02-24T17:33:17.321Z,99107.38
2023-02-24T17:35:48.140Z,99107.41
2023-02-24T17:38:19.509Z,99109.00
2023-02-24T17:40:52.401Z,99104.25
2023-02-24T17:43:22.534Z,99096.97
2023-02-24T17:45:55.170Z,99090.47
2023-02-24T17:48:25.502Z,99087.19
2023-02-24T17:50:55.550Z,99080.75
2023-02-24T17:53:26.656Z,99093.53
2023-02-24T17:56:04.522Z,99091.69
2023-02-24T17:58:35.212Z,99079.91
2023-02-24T18:01:08.663Z,99073.38
2023-02-24T18:03:39.432Z,99067.84
2023-02-24T18:06:12.025Z,99068.66
2023-02-24T18:08:43.321Z,99058.31
2023-02-24T18:11:17.843Z,99061.28
2023-02-24T18:13:52.597Z,99055.38
2023-02-24T18:16:25.879Z,99056.69
2023-02-24T18:18:56.096Z,99046.84
2023-02-24T18:21:26.225Z,99047.81
2023-02-24T18:23:56.332Z,99043.03
2023-02-24T18:26:27.623Z,99049.16
2023-02-24T18:28:58.898Z,99043.22
2023-02-24T18:31:33.287Z,99042.75
2023-02-24T18:34:06.944Z,99038.34
2023-02-24T18:36:37.270Z,99035.72
2023-02-24T18:39:09.810Z,99036.03
2023-02-24T18:41:39.860Z,99032.28
2023-02-24T18:44:10.178Z,99033.91
2023-02-24T18:46:42.946Z,99040.78
2023-02-24T18:49:13.145Z,99037.34
2023-02-24T18:51:43.318Z,99030.31
2023-02-24T18:54:13.924Z,99016.34
2023-02-24T18:56:43.916Z,99022.25
2023-02-24T18:59:14.131Z,99008.31
2023-02-24T19:01:46.815Z,99013.91
2023-02-24T19:04:17.742Z,99011.94
2023-02-24T19:06:49.235Z,99013.63
2023-02-24T19:09:21.850Z,99005.41
2023-02-24T19:11:54.216Z,98997.66
2023-02-24T19:14:24.447Z,99003.06
2023-02-24T19:16:57.080Z,98987.81
2023-02-24T19:19:29.427Z,98992.91
2023-02-24T19:22:00.279Z,98983.53
2023-02-24T19:24:30.692Z,98989.28
2023-02-24T19:27:00.665Z,98972.75
2023-02-24T19:29:30.725Z,98971.09
2023-02-24T19:32:03.853Z,98972.75
2023-02-24T19:34:34.029Z,98970.44
2023-02-24T19:37:03.969Z,98966.50
2023-02-24T19:39:34.024Z,98961.25
2023-02-24T19:42:04.146Z,98967.31
2023-02-24T19:44:34.335Z,98957.31
2023-02-24T19:47:07.459Z,98950.09
2023-02-24T19:49:37.460Z,98943.69
2023-02-24T19:52:07.414Z,98950.56
2023-02-24T19:54:37.613Z,98941.09
2023-02-24T19:57:10.156Z,98936.47
2023-02-24T19:59:40.369Z,98943.72
2023-02-24T20:02:13.008Z,98937.16
2023-02-24T20:04:43.211Z,98929.94
2023-02-24T20:07:13.206Z,98933.72
2023-02-24T20:09:47.429Z,98931.38
2023-02-24T20:12:17.619Z,98925.31
2023-02-24T20:14:47.552Z,98917.59
2023-02-24T20:17:20.267Z,98925.63
2023-02-24T20:19:50.270Z,98922.22
2023-02-24T20:22:20.296Z,98917.44
2023-02-24T20:24:50.481Z,98928.44
2023-02-24T20:27:20.519Z,98915.13
2023-02-24T20:29:53.389Z,98917.94
2023-02-24T20:32:26.514Z,98916.97
2023-02-24T20:34:56.793Z,98912.19
2023-02-24T20:37:26.827Z,98913.34
2023-02-24T20:39:57.007Z,98913.16
2023-02-24T20:42:27.308Z,98909.06
2023-02-24T20:44:57.587Z,98908.91
2023-02-24T20:47:30.449Z,98899.84
2023-02-24T20:50:00.631Z,98906.59
2023-02-24T20:52:30.752Z,98898.06
2023-02-24T20:55:00.727Z,98897.72
2023-02-24T20:57:31.055Z,98895.44
2023-02-24T21:00:07.261Z,98882.81
2023-02-24T21:02:41.619Z,98883.81
2023-02-24T21:05:13.491Z,98892.66
2023-02-24T21:07:43.735Z,98890.16
2023-02-24T21:10:15.214Z,98882.63
2023-02-24T21:12:45.655Z,98873.63
2023-02-24T21:15:15.763Z,98873.28
2023-02-24T21:17:48.447Z,98866.06
2023-02-24T21:20:18.579Z,98872.59
2023-02-24T21:22:48.611Z,98864.41
2023-02-24T21:25:18.570Z,98860.63
2023-02-24T21:27:48.641Z,98858.19
2023-02-24T21:30:19.192Z,98854.25
2023-02-24T21:32:51.856Z,98844.13
2023-02-24T21:35:21.809Z,98844.13
2023-02-24T21:37:51.866Z,98839.16
2023-02-24T21:40:22.083Z,98834.06
2023-02-24T21:42:52.224Z,98838.97
2023-02-24T21:45:22.293Z,98832.22
2023-02-24T21:47:54.950Z,98828.56
2023-02-24T21:50:25.054Z,98826.94
2023-02-24T21:52:56.009Z,98822.69
2023-02-24T21:55:26.088Z,98824.13
2023-02-24T21:57:56.534Z,98826.94
2023-02-24T22:00:28.616Z,98814.28
2023-02-24T22:03:01.315Z,98818.72
2023-02-24T22:05:31.410Z,98808.22
2023-02-24T22:08:01.958Z,98803.94
2023-02-24T22:10:32.150Z,98808.16
2023-02-24T22:13:02.658Z,98791.38
2023-02-24T22:15:33.257Z,98798.59
2023-02-24T22:18:05.865Z,98797.59
2023-02-24T22:20:36.023Z,98795.81
2023-02-24T22:23:06.060Z,98790.19
2023-02-24T22:25:37.951Z,98787.41
2023-02-24T22:28:08.108Z,98787.41
2023-02-24T22:30:38.191Z,98781.16
2023-02-24T22:33:10.934Z,98779.31
2023-02-24T22:35:41.133Z,98775.72
2023-02-24T22:38:11.191Z,98776.38
2023-02-24T22:40:41.261Z,98776.19
2023-02-24T22:43:11.415Z,98781.50
2023-02-24T22:45:41.578Z,98780.81
2023-02-24T22:48:14.541Z,98767.38
2023-02-24T22:50:44.646Z,98773.63
2023-02-24T22:53:14.538Z,98767.84
2023-02-24T22:55:48.702Z,98767.38
2023-02-24T22:58:19.229Z,98772.09
2023-02-24T23:00:50.023Z,98761.13
2023-02-24T23:03:24.248Z,98761.75
2023-02-24T23:05:59.325Z,98760.75
2023-02-24T23:08:30.267Z,98758.44
2023-02-24T23:11:06.869Z,98756.81
2023-02-24T23:13:38.417Z,98763.88
2023-02-24T23:16:14.237Z,98758.13
2023-02-24T23:18:51.136Z,98755.59
2023-02-24T23:21:23.753Z,98755.44
2023-02-24T23:23:57.026Z,98754.44
2023-02-24T23:26:31.888Z,98755.44
2023-02-24T23:29:01.943Z,98750.88
2023-02-24T23:31:32.170Z,98757.75
2023-02-24T23:34:06.657Z,98759.75
2023-02-24T23:36:37.641Z,98758.34
2023-02-24T23:39:09.384Z,98747.94
2023-02-24T23:41:41.337Z,98747.94
2023-02-24T23:44:12.583Z,98747.47
2023-02-24T23:46:42.788Z,98742.09
2023-02-24T23:49:16.009Z,98744.56
2023-02-24T23:51:48.876Z,98742.47
2023-02-24T23:54:20.438Z,98737.72
2023-02-24T23:56:50.471Z,98743.00
2023-02-24T23:59:20.454Z,98741.72
